createdAt,value
2022-08-01T00:01:32.665Z,18.50
2022-08-01T00:04:02.760Z,18.50
2022-08-01T00:06:31.310Z,18.50
2022-08-01T00:09:00.979Z,18.50
2022-08-01T00:11:29.207Z,18.60
2022-08-01T00:13:57.514Z,18.60
2022-08-01T00:16:25.840Z,18.60
2022-08-01T00:18:54.597Z,18.50
2022-08-01T00:21:23.192Z,18.60
2022-08-01T00:23:53.331Z,18.60
2022-08-01T00:26:22.893Z,18.60
2022-08-01T00:28:51.151Z,18.60
2022-08-01T00:31:19.335Z,18.60
2022-08-01T00:33:49.738Z,18.60
2022-08-01T00:36:18.142Z,18.60
2022-08-01T00:38:46.529Z,18.50
2022-08-01T00:41:18.397Z,18.50
2022-08-01T00:43:50.163Z,18.60
2022-08-01T00:46:18.344Z,18.60
2022-08-01T00:48:46.687Z,18.60
2022-08-01T00:51:18.349Z,18.50
2022-08-01T00:53:51.975Z,18.50
2022-08-01T00:56:22.405Z,18.50
2022-08-01T00:58:52.297Z,18.50
2022-08-01T01:01:21.968Z,18.50
2022-08-01T01:03:59.740Z,18.50
2022-08-01T01:06:37.358Z,18.50
2022-08-01T01:09:19.231Z,18.50
2022-08-01T01:11:54.277Z,18.50
2022-08-01T01:14:32.817Z,18.50
2022-08-01T01:17:03.660Z,18.50
2022-08-01T01:19:37.778Z,18.50
2022-08-01T01:22:27.981Z,18.50
2022-08-01T01:25:10.204Z,18.40
2022-08-01T01:27:58.126Z,18.40
2022-08-01T01:30:32.577Z,18.30
2022-08-01T01:33:04.482Z,18.20
2022-08-01T01:35:36.306Z,18.30
2022-08-01T01:38:11.188Z,18.30
2022-08-01T01:40:40.115Z,18.20
2022-08-01T01:43:13.343Z,18.20
2022-08-01T01:45:49.992Z,18.20
2022-08-01T01:48:22.334Z,18.20
2022-08-01T01:50:53.351Z,18.20
2022-08-01T01:53:24.687Z,18.20
2022-08-01T01:55:55.989Z,18.20
2022-08-01T01:58:25.208Z,18.20
2022-08-01T02:00:57.339Z,18.10
2022-08-01T02:03:28.535Z,18.10
2022-08-01T02:05:58.046Z,18.10
2022-08-01T02:08:26.890Z,18.10
2022-08-01T02:11:14.680Z,18.10
2022-08-01T02:13:44.603Z,18.10
2022-08-01T02:16:16.349Z,18.10
2022-08-01T02:18:44.879Z,18.00
2022-08-01T02:21:18.277Z,18.00
2022-08-01T02:23:46.437Z,18.00
2022-08-01T02:26:19.297Z,18.00
2022-08-01T02:28:51.576Z,18.00
2022-08-01T02:31:24.581Z,17.90
2022-08-01T02:33:59.265Z,17.90
2022-08-01T02:36:33.607Z,17.90
2022-08-01T02:39:05.361Z,17.90
2022-08-01T02:41:35.505Z,17.80
2022-08-01T02:44:07.322Z,17.80
2022-08-01T02:46:40.830Z,17.80
2022-08-01T02:49:11.311Z,17.70
2022-08-01T02:51:41.984Z,17.70
2022-08-01T02:54:14.209Z,17.70
2022-08-01T02:56:43.739Z,17.70
2022-08-01T02:59:15.475Z,17.60
2022-08-01T03:01:47.906Z,17.60
2022-08-01T03:04:18.782Z,17.60
2022-08-01T03:06:48.333Z,17.60
2022-08-01T03:09:17.592Z,17.60
2022-08-01T03:11:48.709Z,17.60
2022-08-01T03:14:17.992Z,17.60
2022-08-01T03:16:49.225Z,17.60
2022-08-01T03:19:21.054Z,17.50
2022-08-01T03:21:50.403Z,17.60
2022-08-01T03:24:20.093Z,17.50
2022-08-01T03:26:49.535Z,17.50
2022-08-01T03:29:21.915Z,17.50
2022-08-01T03:31:52.023Z,17.50
2022-08-01T03:34:22.563Z,17.40
2022-08-01T03:36:55.541Z,17.40
2022-08-01T03:39:29.464Z,17.40
2022-08-01T03:42:03.315Z,17.40
2022-08-01T03:44:35.891Z,17.40
2022-08-01T03:47:09.611Z,17.40
2022-08-01T03:49:43.634Z,17.40
2022-08-01T03:52:13.969Z,17.40
2022-08-01T03:54:46.304Z,17.30
2022-08-01T03:57:23.251Z,17.20
2022-08-01T04:00:07.254Z,17.20
2022-08-01T04:02:37.353Z,17.20
2022-08-01T04:05:06.504Z,17.20
2022-08-01T04:07:36.877Z,17.20
2022-08-01T04:10:06.023Z,17.20
2022-08-01T04:12:34.629Z,17.10
2022-08-01T04:15:04.130Z,17.10
2022-08-01T04:17:32.635Z,17.10
2022-08-01T04:20:02.206Z,17.10
2022-08-01T04:22:31.583Z,17.10
2022-08-01T04:25:02.698Z,17.10
2022-08-01T04:27:48.718Z,17.00
2022-08-01T04:30:22.911Z,17.00
2022-08-01T04:32:52.492Z,17.00
2022-08-01T04:36:03.994Z,17.00
2022-08-01T04:38:14.118Z,16.90
2022-08-01T04:40:43.218Z,16.90
2022-08-01T04:43:11.472Z,16.90
2022-08-01T04:45:40.959Z,16.90
2022-08-01T04:48:09.948Z,16.90
2022-08-01T04:50:39.652Z,16.90
2022-08-01T04:53:13.904Z,16.90
2022-08-01T04:55:42.258Z,16.80
2022-08-01T04:58:15.071Z,16.80
2022-08-01T05:00:45.685Z,16.80
2022-08-01T05:03:13.945Z,16.70
2022-08-01T05:05:43.537Z,16.80
2022-08-01T05:08:11.912Z,16.70
2022-08-01T05:10:40.165Z,16.70
2022-08-01T05:13:08.345Z,16.70
2022-08-01T05:15:48.186Z,16.60
2022-08-01T05:18:17.347Z,16.60
2022-08-01T05:20:55.882Z,16.50
2022-08-01T05:23:42.110Z,16.40
2022-08-01T05:26:14.772Z,16.30
2022-08-01T05:28:43.320Z,16.20
2022-08-01T05:31:11.689Z,16.20
2022-08-01T05:33:39.885Z,16.30
2022-08-01T05:36:09.592Z,16.30
2022-08-01T05:38:37.851Z,16.30
2022-08-01T05:41:06.838Z,16.30
2022-08-01T05:43:35.317Z,16.20
2022-08-01T05:46:03.631Z,16.20
2022-08-01T05:48:32.020Z,16.20
2022-08-01T05:51:00.340Z,16.10
2022-08-01T05:53:30.070Z,16.10
2022-08-01T05:55:58.802Z,16.10
2022-08-01T05:58:26.986Z,16.10
2022-08-01T06:00:55.574Z,16.10
2022-08-01T06:03:23.782Z,16.00
2022-08-01T06:05:53.179Z,16.00
2022-08-01T06:08:21.420Z,16.00
2022-08-01T06:10:52.513Z,16.00
2022-08-01T06:13:21.059Z,16.00
2022-08-01T06:15:49.659Z,16.10
2022-08-01T06:18:18.269Z,16.10
2022-08-01T06:20:46.829Z,16.10
2022-08-01T06:23:32.801Z,16.10
2022-08-01T06:26:02.995Z,16.10
2022-08-01T06:28:34.630Z,16.20
2022-08-01T06:31:02.738Z,16.20
2022-08-01T06:33:31.107Z,16.20
2022-08-01T06:35:59.278Z,16.30
2022-08-01T06:38:27.622Z,16.30
2022-08-01T06:40:58.064Z,16.30
2022-08-01T06:43:27.579Z,16.30
2022-08-01T06:45:55.776Z,16.30
2022-08-01T06:48:24.580Z,16.20
2022-08-01T06:51:09.059Z,16.20
2022-08-01T06:53:38.563Z,16.30
2022-08-01T06:56:07.857Z,16.20
2022-08-01T06:58:37.647Z,16.20
2022-08-01T07:01:08.143Z,16.30
2022-08-01T07:03:52.936Z,16.30
2022-08-01T07:06:24.113Z,16.30
2022-08-01T07:08:52.473Z,16.30
2022-08-01T07:11:20.860Z,16.40
2022-08-01T07:13:50.890Z,16.40
2022-08-01T07:16:19.530Z,16.40
2022-08-01T07:18:47.896Z,16.40
2022-08-01T07:21:16.698Z,16.40
2022-08-01T07:24:12.780Z,16.50
2022-08-01T07:26:52.670Z,16.50
2022-08-01T07:29:24.754Z,16.60
2022-08-01T07:31:54.096Z,16.70
2022-08-01T07:34:22.491Z,16.70
2022-08-01T07:36:51.017Z,16.70
2022-08-01T07:39:19.584Z,16.80
2022-08-01T07:42:05.825Z,16.80
2022-08-01T07:44:37.777Z,16.80
2022-08-01T07:47:06.920Z,16.80
2022-08-01T07:49:39.929Z,16.90
2022-08-01T07:52:09.459Z,16.90
2022-08-01T07:54:39.829Z,16.90
2022-08-01T07:57:08.085Z,16.90
2022-08-01T07:59:37.783Z,16.90
2022-08-01T08:02:06.378Z,16.90
2022-08-01T08:04:34.879Z,17.00
2022-08-01T08:07:03.350Z,17.00
2022-08-01T08:09:31.933Z,17.00
2022-08-01T08:12:07.845Z,17.00
2022-08-01T08:14:37.602Z,17.00
2022-08-01T08:17:06.479Z,17.10
2022-08-01T08:19:39.793Z,17.20
2022-08-01T08:22:09.386Z,17.20
2022-08-01T08:24:46.422Z,17.30
2022-08-01T08:27:15.553Z,17.30
2022-08-01T08:29:45.279Z,17.30
2022-08-01T08:32:13.831Z,17.30
2022-08-01T08:34:41.985Z,17.20
2022-08-01T08:37:10.246Z,17.40
2022-08-01T08:39:41.891Z,17.30
2022-08-01T08:42:11.762Z,17.40
2022-08-01T08:44:43.510Z,17.50
2022-08-01T08:47:20.099Z,17.50
2022-08-01T08:49:50.153Z,17.50
2022-08-01T08:52:20.753Z,17.60
2022-08-01T08:54:50.930Z,17.70
2022-08-01T08:57:21.986Z,17.70
2022-08-01T08:59:52.793Z,17.60
2022-08-01T09:02:22.462Z,17.70
2022-08-01T09:04:51.367Z,17.70
2022-08-01T09:07:19.587Z,17.80
2022-08-01T09:09:49.701Z,17.90
2022-08-01T09:12:18.937Z,18.00
2022-08-01T09:14:48.669Z,18.00
2022-08-01T09:17:17.656Z,18.10
2022-08-01T09:19:49.646Z,18.20
2022-08-01T09:22:22.351Z,18.20
2022-08-01T09:25:01.536Z,18.30
2022-08-01T09:27:30.519Z,18.30
2022-08-01T09:30:11.328Z,18.40
2022-08-01T09:32:56.549Z,18.40
2022-08-01T09:35:31.299Z,18.50
2022-08-01T09:38:17.725Z,18.60
2022-08-01T09:40:54.976Z,18.50
2022-08-01T09:43:27.259Z,18.60
2022-08-01T09:45:58.430Z,18.60
2022-08-01T09:48:30.002Z,18.60
2022-08-01T09:51:07.249Z,18.50
2022-08-01T09:53:51.272Z,18.60
2022-08-01T09:56:22.819Z,18.60
2022-08-01T09:58:58.806Z,18.60
2022-08-01T10:01:36.586Z,18.60
2022-08-01T10:04:12.098Z,18.60
2022-08-01T10:06:43.730Z,18.70
2022-08-01T10:09:12.564Z,18.70
2022-08-01T10:11:44.703Z,18.70
2022-08-01T10:14:17.814Z,18.80
2022-08-01T10:16:53.854Z,18.70
2022-08-01T10:19:29.590Z,18.80
2022-08-01T10:22:03.437Z,18.80
2022-08-01T10:24:33.586Z,18.90
2022-08-01T10:27:08.241Z,19.00
2022-08-01T10:29:46.793Z,19.00
2022-08-01T10:32:31.288Z,18.90
2022-08-01T10:35:06.265Z,18.80
2022-08-01T10:37:51.534Z,18.80
2022-08-01T10:40:35.375Z,18.90
2022-08-01T10:43:06.619Z,19.00
2022-08-01T10:45:35.950Z,19.00
2022-08-01T10:48:11.511Z,19.00
2022-08-01T10:50:43.728Z,19.10
2022-08-01T10:53:23.210Z,19.00
2022-08-01T10:56:02.814Z,19.00
2022-08-01T10:58:39.535Z,19.00
2022-08-01T11:01:26.265Z,19.00
2022-08-01T11:04:15.542Z,19.10
2022-08-01T11:07:06.648Z,19.20
2022-08-01T11:09:49.500Z,19.20
2022-08-01T11:12:24.949Z,19.30
2022-08-01T11:15:31.071Z,19.30
2022-08-01T11:18:04.511Z,19.40
2022-08-01T11:20:42.401Z,19.50
2022-08-01T11:23:23.366Z,19.50
2022-08-01T11:26:29.143Z,19.60
2022-08-01T11:29:23.464Z,19.70
2022-08-01T11:31:53.364Z,19.70
2022-08-01T11:34:21.813Z,19.80
2022-08-01T11:36:59.724Z,19.80
2022-08-01T11:39:29.495Z,20.00
2022-08-01T11:42:20.823Z,19.90
2022-08-01T11:44:53.180Z,19.80
2022-08-01T11:47:45.523Z,19.80
2022-08-01T11:50:38.030Z,19.70
2022-08-01T11:53:08.793Z,19.70
2022-08-01T11:55:47.641Z,19.70
2022-08-01T11:58:29.237Z,19.80
2022-08-01T12:01:00.212Z,20.00
2022-08-01T12:03:33.653Z,20.00
2022-08-01T12:06:03.000Z,20.00
2022-08-01T12:08:33.848Z,20.10
2022-08-01T12:11:03.216Z,20.20
2022-08-01T12:13:44.173Z,20.30
2022-08-01T12:16:13.379Z,20.30
2022-08-01T12:18:42.695Z,20.20
2022-08-01T12:21:10.936Z,20.20
2022-08-01T12:23:39.159Z,20.40
2022-08-01T12:26:07.470Z,20.50
2022-08-01T12:28:42.673Z,20.50
2022-08-01T12:31:10.771Z,20.60
2022-08-01T12:33:41.202Z,20.40
2022-08-01T12:36:09.370Z,20.50
2022-08-01T12:38:43.103Z,20.30
2022-08-01T12:41:13.363Z,20.40
2022-08-01T12:43:43.141Z,20.40
2022-08-01T12:46:17.010Z,20.50
2022-08-01T12:48:45.550Z,20.40
2022-08-01T12:51:16.586Z,20.40
2022-08-01T12:53:45.476Z,20.50
2022-08-01T12:56:13.730Z,20.50
2022-08-01T12:58:43.260Z,20.60
2022-08-01T13:01:14.281Z,20.80
2022-08-01T13:03:43.054Z,21.10
2022-08-01T13:06:16.564Z,21.30
2022-08-01T13:08:46.351Z,21.40
2022-08-01T13:11:16.604Z,21.20
2022-08-01T13:13:49.231Z,21.10
2022-08-01T13:16:30.907Z,21.10
2022-08-01T13:19:07.512Z,21.10
2022-08-01T13:21:58.230Z,21.10
2022-08-01T13:24:28.534Z,21.10
2022-08-01T13:27:00.570Z,21.20
2022-08-01T13:29:34.790Z,21.20
2022-08-01T13:32:28.318Z,21.20
2022-08-01T13:35:05.787Z,21.20
2022-08-01T13:37:34.161Z,21.10
2022-08-01T13:40:02.318Z,21.10
2022-08-01T13:42:31.585Z,20.80
2022-08-01T13:45:04.234Z,20.80
2022-08-01T13:48:03.212Z,20.70
2022-08-01T13:50:30.676Z,20.90
2022-08-01T13:52:59.395Z,21.00
2022-08-01T13:55:32.339Z,21.10
2022-08-01T13:58:04.146Z,21.10
2022-08-01T14:00:34.233Z,21.20
2022-08-01T14:03:02.667Z,21.20
2022-08-01T14:05:31.721Z,21.40
2022-08-01T14:07:59.879Z,21.60
2022-08-01T14:10:30.823Z,21.40
2022-08-01T14:12:59.635Z,21.30
2022-08-01T14:15:38.068Z,21.40
2022-08-01T14:18:10.600Z,21.50
2022-08-01T14:20:40.443Z,21.60
2022-08-01T14:23:11.430Z,21.70
2022-08-01T14:26:01.479Z,21.90
2022-08-01T14:28:29.455Z,22.10
2022-08-01T14:30:58.948Z,22.20
2022-08-01T14:33:28.826Z,22.30
2022-08-01T14:36:05.925Z,22.50
2022-08-01T14:38:46.363Z,22.80
2022-08-01T14:41:17.558Z,23.10
2022-08-01T14:43:45.921Z,23.30
2022-08-01T14:46:14.180Z,23.30
2022-08-01T14:48:49.394Z,23.40
2022-08-01T14:51:17.680Z,23.20
2022-08-01T14:53:50.834Z,23.10
2022-08-01T14:56:21.494Z,23.00
2022-08-01T14:58:49.636Z,22.90
2022-08-01T15:01:19.035Z,22.80
2022-08-01T15:03:50.826Z,22.50
2022-08-01T15:06:19.281Z,22.50
2022-08-01T15:08:47.344Z,22.50
2022-08-01T15:11:15.513Z,22.70
2022-08-01T15:13:43.670Z,22.90
2022-08-01T15:16:12.351Z,23.10
2022-08-01T15:18:42.905Z,23.20
2022-08-01T15:21:29.249Z,23.10
2022-08-01T15:24:00.785Z,23.10
2022-08-01T15:26:30.649Z,23.20
2022-08-01T15:28:58.868Z,23.10
2022-08-01T15:31:27.105Z,23.10
2022-08-01T15:33:56.005Z,23.00
2022-08-01T15:36:26.500Z,22.80
2022-08-01T15:39:00.563Z,22.70
2022-08-01T15:41:37.470Z,22.80
2022-08-01T15:44:06.075Z,22.80
2022-08-01T15:46:34.368Z,23.00
2022-08-01T15:49:04.374Z,22.90
2022-08-01T15:51:35.141Z,23.00
2022-08-01T15:54:08.372Z,23.30
2022-08-01T15:56:39.915Z,23.50
2022-08-01T15:59:08.331Z,23.60
2022-08-01T16:01:37.058Z,23.80
2022-08-01T16:04:06.091Z,24.10
2022-08-01T16:06:36.605Z,24.50
2022-08-01T16:09:05.459Z,24.20
2022-08-01T16:11:33.778Z,24.10
2022-08-01T16:14:02.347Z,24.00
2022-08-01T16:16:30.580Z,24.20
2022-08-01T16:18:58.787Z,24.40
2022-08-01T16:21:27.115Z,24.60
2022-08-01T16:23:57.013Z,24.40
2022-08-01T16:26:28.161Z,23.90
2022-08-01T16:28:57.948Z,23.70
2022-08-01T16:31:36.114Z,23.60
2022-08-01T16:34:15.257Z,23.80
2022-08-01T16:36:43.661Z,23.60
2022-08-01T16:39:13.168Z,23.80
2022-08-01T16:41:41.380Z,24.00
2022-08-01T16:44:09.630Z,24.20
2022-08-01T16:46:37.814Z,24.30
2022-08-01T16:49:06.657Z,24.10
2022-08-01T16:51:39.559Z,23.70
2022-08-01T16:54:25.414Z,23.70
2022-08-01T16:56:54.638Z,23.50
2022-08-01T16:59:24.864Z,23.40
2022-08-01T17:01:58.738Z,23.30
2022-08-01T17:04:31.913Z,23.10
2022-08-01T17:07:00.150Z,23.00
2022-08-01T17:09:29.981Z,23.00
2022-08-01T17:11:58.209Z,23.00
2022-08-01T17:14:26.416Z,23.00
2022-08-01T17:16:54.587Z,22.90
2022-08-01T17:19:26.794Z,23.00
2022-08-01T17:22:01.055Z,23.00
2022-08-01T17:24:30.840Z,23.00
2022-08-01T17:26:59.054Z,23.00
2022-08-01T17:33:21.417Z,22.70
2022-08-01T17:35:53.761Z,22.60
2022-08-01T17:38:22.096Z,22.60
2022-08-01T17:40:51.581Z,22.70
2022-08-01T17:43:19.805Z,22.70
2022-08-01T17:45:51.427Z,22.70
2022-08-01T17:48:20.141Z,22.60
2022-08-01T17:50:49.413Z,22.50
2022-08-01T17:53:21.165Z,22.40
2022-08-01T17:55:53.739Z,22.40
2022-08-01T17:58:49.081Z,22.30
2022-08-01T18:01:18.868Z,22.30
2022-08-01T18:03:50.820Z,22.30
2022-08-01T18:06:23.296Z,22.20
2022-08-01T18:08:53.083Z,22.10
2022-08-01T18:11:27.177Z,22.00
2022-08-01T18:13:56.111Z,22.10
2022-08-01T18:16:24.530Z,22.10
2022-08-01T18:18:52.727Z,22.00
2022-08-01T18:21:20.969Z,22.00
2022-08-01T18:23:53.074Z,22.00
2022-08-01T18:26:21.960Z,22.00
2022-08-01T18:28:51.494Z,21.90
2022-08-01T18:31:20.978Z,21.90
2022-08-01T18:33:49.582Z,21.80
2022-08-01T18:36:33.027Z,21.80
2022-08-01T18:39:05.557Z,21.70
2022-08-01T18:41:35.079Z,21.60
2022-08-01T18:44:08.310Z,21.60
2022-08-01T18:46:38.434Z,21.60
2022-08-01T18:49:09.842Z,21.50
2022-08-01T18:51:43.932Z,21.40
2022-08-01T18:54:13.120Z,21.40
2022-08-01T18:56:42.205Z,21.30
2022-08-01T18:59:13.861Z,21.20
2022-08-01T19:01:42.428Z,21.20
2022-08-01T19:04:11.454Z,21.10
2022-08-01T19:06:40.557Z,20.90
2022-08-01T19:09:20.300Z,20.80
2022-08-01T19:11:52.287Z,20.70
2022-08-01T19:14:21.832Z,20.60
2022-08-01T19:16:52.612Z,20.50
2022-08-01T19:19:24.817Z,20.50
2022-08-01T19:21:56.420Z,20.30
2022-08-01T19:24:26.936Z,20.30
2022-08-01T19:26:59.609Z,20.20
2022-08-01T19:29:39.645Z,20.10
2022-08-01T19:32:10.593Z,20.00
2022-08-01T19:34:48.604Z,19.90
2022-08-01T19:37:17.764Z,19.80
2022-08-01T19:39:46.281Z,19.70
2022-08-01T19:42:15.021Z,19.70
2022-08-01T19:44:46.035Z,19.60
2022-08-01T19:47:14.727Z,19.60
2022-08-01T19:49:43.079Z,19.50
2022-08-01T19:52:13.645Z,19.40
2022-08-01T19:54:44.849Z,19.30
2022-08-01T19:57:15.966Z,19.20
2022-08-01T19:59:48.711Z,19.20
2022-08-01T20:02:19.988Z,19.10
2022-08-01T20:04:48.956Z,19.00
2022-08-01T20:07:17.462Z,18.90
2022-08-01T20:09:48.517Z,18.90
2022-08-01T20:12:16.943Z,18.90
2022-08-01T20:14:49.900Z,18.80
2022-08-01T20:17:19.835Z,18.70
2022-08-01T20:19:48.142Z,18.60
2022-08-01T20:22:19.965Z,18.60
2022-08-01T20:24:54.856Z,18.50
2022-08-01T20:27:26.204Z,18.50
2022-08-01T20:30:00.170Z,18.40
2022-08-01T20:32:31.896Z,18.40
2022-08-01T20:35:01.647Z,18.30
2022-08-01T20:38:03.881Z,18.20
2022-08-01T20:40:25.086Z,18.20
2022-08-01T20:42:53.670Z,18.20
2022-08-01T20:45:25.857Z,18.10
2022-08-01T20:47:55.082Z,18.00
2022-08-01T20:50:54.316Z,18.00
2022-08-01T20:53:23.834Z,17.90
2022-08-01T20:55:59.117Z,17.90
2022-08-01T20:58:34.834Z,17.80
2022-08-01T21:01:09.450Z,17.70
2022-08-01T21:03:43.692Z,17.70
2022-08-01T21:06:14.897Z,17.70
2022-08-01T21:08:44.973Z,17.60
2022-08-01T21:11:17.801Z,17.50
2022-08-01T21:13:48.135Z,17.50
2022-08-01T21:16:25.007Z,17.40
2022-08-01T21:19:18.675Z,17.30
2022-08-01T21:21:52.378Z,17.30
2022-08-01T21:24:24.526Z,17.20
2022-08-01T21:26:54.538Z,17.10
2022-08-01T21:29:25.264Z,17.10
2022-08-01T21:32:09.363Z,17.00
2022-08-01T21:34:39.220Z,17.00
2022-08-01T21:37:08.991Z,17.00
2022-08-01T21:39:38.286Z,16.90
2022-08-01T21:42:15.190Z,16.80
2022-08-01T21:44:48.116Z,16.80
2022-08-01T21:47:17.786Z,16.70
2022-08-01T21:49:46.063Z,16.70
2022-08-01T21:52:21.395Z,16.60
2022-08-01T21:55:02.606Z,16.50
2022-08-01T21:57:45.020Z,16.40
2022-08-01T22:00:25.441Z,16.40
2022-08-01T22:03:04.228Z,16.30
2022-08-01T22:05:42.605Z,16.20
2022-08-01T22:08:41.813Z,16.20
2022-08-01T22:11:15.206Z,16.20
2022-08-01T22:13:43.485Z,16.20
2022-08-01T22:16:15.340Z,16.10
2022-08-01T22:18:46.942Z,16.10
2022-08-01T22:21:15.177Z,16.10
2022-08-01T22:23:44.577Z,16.00
2022-08-01T22:26:13.425Z,16.00
2022-08-01T22:28:41.864Z,16.00
2022-08-01T22:31:10.040Z,15.90
2022-08-01T22:33:39.639Z,15.80
2022-08-01T22:36:09.539Z,15.80
2022-08-01T22:38:37.787Z,15.80
2022-08-01T22:41:07.853Z,15.70
2022-08-01T22:43:41.161Z,15.60
2022-08-01T22:46:18.220Z,15.50
2022-08-01T22:48:50.723Z,15.50
2022-08-01T22:51:32.693Z,15.50
2022-08-01T22:54:05.968Z,15.40
2022-08-01T22:56:38.739Z,15.40
2022-08-01T22:59:14.989Z,15.30
2022-08-01T23:01:47.777Z,15.30
2022-08-01T23:04:33.116Z,15.30
2022-08-01T23:07:06.009Z,15.20
2022-08-01T23:09:53.047Z,15.20
2022-08-01T23:12:25.916Z,15.20
2022-08-01T23:14:57.122Z,15.20
2022-08-01T23:17:28.836Z,15.20
2022-08-01T23:20:02.786Z,15.10
2022-08-01T23:22:34.692Z,15.10
2022-08-01T23:25:06.528Z,15.00
2022-08-01T23:27:55.797Z,15.00
2022-08-01T23:30:26.746Z,15.00
2022-08-01T23:32:55.454Z,14.90
2022-08-01T23:35:24.368Z,14.90
2022-08-01T23:38:01.872Z,14.90
2022-08-01T23:40:32.291Z,14.90
2022-08-01T23:43:01.183Z,14.80
2022-08-01T23:45:58.465Z,14.80
2022-08-01T23:48:18.054Z,14.80
2022-08-01T23:50:46.229Z,14.80
2022-08-01T23:53:15.764Z,14.70
2022-08-01T23:55:44.724Z,14.70
2022-08-01T23:58:12.900Z,14.60
